City of Colorado Springs Municipal Airport
KCOS : now visible

Airfield :











YOU CAN JOIN US ON...

 
LOGIN :

Register | Disclaimer

   EN    FR    IT 

 









Legend :    VFR   Marginal VFR   IFR   Intensive IFR   Very Intensive IFR
Visi :
Ceiling :
>= 8 km
>= 3000ft
5 to 8 km
1000 to 3000 ft
1500m to 5 km
500 to 1000 ft
800 to 1500m
200 to 500 ft
< 800m
< 200 ft
Symbols :   Thunderstorms  Fog  Heavy snow  Heavy precipitations  Wind > 20 kt






- Airport Elevation : 6187 ft
- IATA code : COS


KCOS - City of Colorado Springs Municipal

CURRENT METAR :
  • 281454Z 35018KT 10SM FEW080 SCT140 SCT250 18/09 A3030 RMK AO2 PK WND 34030/1421 SLP196 T01780089 51018

EXPIRED METARs :
  • 281354Z 34019G30KT 10SM FEW080 SCT100 SCT250 16/08 A3028 RMK AO2 PK WND 36030/1345 SLP191 CB DSNT NE MOV S T01610083
  • 281254Z 35018G28KT 10SM FEW090 SCT110 BKN250 15/08 A3027 RMK AO2 PK WND 34031/1220 SLP183 MDT CU E-SW ACSL SW -S T01500083

TAF KCOS
Valid from the 28 at 12:00 until the 29 at 12:00 UTC


281137Z 2812/2912 34015G25KT P6SM SCT110
FM281500 36009KT P6SM FEW110
FM281800 11008KT P6SM SCT080 SCT200
FM282100 14009KT P6SM VCTS SCT070CB BKN130
FM290300 10006KT P6SM VCSH SCT070 BKN130
FM290900 09005KT P6SM SCT090
KZDV FIR / North America



MET'MAP, your aeronautical weather chart ! - Copyright ORBIFLY December 2007 - Disclaimer

ORBIFLY MET'MAP TEAM :

Programming & Development : Alexandra Zaïnal
Concept & original design : Baudouin d'Aumeries
Assistance for programming : Marc-Olivier Méhu
Technical & hardware support : Manuel Goepfert

Contact : metmap@orbifly.com




SOURCES & CREDITS :

   NOAA       Earth
Advisory